sensor_id;sensor_type;location;lat;lon;timestamp;P1;durP1;ratioP1;P2;durP2;ratioP2
49029;SDS011;43337;52.070;4.508;2023-05-07T00:01:35;49.28;;;25.40;;
49029;SDS011;43337;52.070;4.508;2023-05-07T00:04:00;52.13;;;25.88;;
49029;SDS011;43337;52.070;4.508;2023-05-07T00:06:26;47.60;;;26.65;;
49029;SDS011;43337;52.070;4.508;2023-05-07T00:08:53;51.88;;;24.83;;
49029;SDS011;43337;52.070;4.508;2023-05-07T00:11:19;46.03;;;23.38;;
49029;SDS011;43337;52.070;4.508;2023-05-07T00:13:45;52.35;;;24.20;;
49029;SDS011;43337;52.070;4.508;2023-05-07T00:16:11;50.78;;;25.05;;
49029;SDS011;43337;52.070;4.508;2023-05-07T00:18:37;49.40;;;25.40;;
49029;SDS011;43337;52.070;4.508;2023-05-07T00:21:02;46.50;;;23.50;;
49029;SDS011;43337;52.070;4.508;2023-05-07T00:23:28;48.22;;;23.08;;
49029;SDS011;43337;52.070;4.508;2023-05-07T00:25:53;49.80;;;23.00;;
49029;SDS011;43337;52.070;4.508;2023-05-07T00:28:19;44.00;;;22.98;;
49029;SDS011;43337;52.070;4.508;2023-05-07T00:30:44;49.38;;;24.05;;
49029;SDS011;43337;52.070;4.508;2023-05-07T00:33:09;45.97;;;23.50;;
49029;SDS011;43337;52.070;4.508;2023-05-07T00:35:35;50.58;;;23.92;;
49029;SDS011;43337;52.070;4.508;2023-05-07T00:38:02;45.58;;;23.13;;
49029;SDS011;43337;52.070;4.508;2023-05-07T00:40:27;52.30;;;24.25;;
49029;SDS011;43337;52.070;4.508;2023-05-07T00:42:53;47.35;;;24.08;;
49029;SDS011;43337;52.070;4.508;2023-05-07T00:45:23;42.58;;;22.05;;
49029;SDS011;43337;52.070;4.508;2023-05-07T00:47:53;50.90;;;24.50;;
49029;SDS011;43337;52.070;4.508;2023-05-07T00:50:20;45.22;;;23.60;;
49029;SDS011;43337;52.070;4.508;2023-05-07T00:52:45;45.58;;;22.83;;
49029;SDS011;43337;52.070;4.508;2023-05-07T00:55:11;42.38;;;22.65;;
49029;SDS011;43337;52.070;4.508;2023-05-07T00:57:39;39.92;;;22.58;;
49029;SDS011;43337;52.070;4.508;2023-05-07T01:00:10;44.80;;;22.40;;
49029;SDS011;43337;52.070;4.508;2023-05-07T01:02:37;43.50;;;23.30;;
49029;SDS011;43337;52.070;4.508;2023-05-07T01:05:03;42.33;;;22.73;;
49029;SDS011;43337;52.070;4.508;2023-05-07T01:07:32;44.53;;;23.27;;
49029;SDS011;43337;52.070;4.508;2023-05-07T01:09:58;42.03;;;22.90;;
49029;SDS011;43337;52.070;4.508;2023-05-07T01:12:26;47.65;;;23.50;;
49029;SDS011;43337;52.070;4.508;2023-05-07T01:14:53;42.17;;;22.65;;
49029;SDS011;43337;52.070;4.508;2023-05-07T01:17:18;44.60;;;22.73;;
49029;SDS011;43337;52.070;4.508;2023-05-07T01:19:44;50.15;;;23.45;;
49029;SDS011;43337;52.070;4.508;2023-05-07T01:22:10;44.67;;;23.17;;
49029;SDS011;43337;52.070;4.508;2023-05-07T01:24:36;47.03;;;24.27;;
49029;SDS011;43337;52.070;4.508;2023-05-07T01:27:03;41.63;;;21.35;;
49029;SDS011;43337;52.070;4.508;2023-05-07T01:29:29;43.42;;;23.50;;
49029;SDS011;43337;52.070;4.508;2023-05-07T01:31:59;43.30;;;22.83;;
49029;SDS011;43337;52.070;4.508;2023-05-07T01:34:27;46.03;;;22.48;;
49029;SDS011;43337;52.070;4.508;2023-05-07T01:36:55;44.97;;;23.13;;
49029;SDS011;43337;52.070;4.508;2023-05-07T01:39:26;43.05;;;23.50;;
49029;SDS011;43337;52.070;4.508;2023-05-07T01:41:56;46.70;;;23.95;;
49029;SDS011;43337;52.070;4.508;2023-05-07T01:44:22;49.63;;;23.30;;
49029;SDS011;43337;52.070;4.508;2023-05-07T01:46:48;47.97;;;24.40;;
49029;SDS011;43337;52.070;4.508;2023-05-07T01:49:15;51.42;;;25.10;;
49029;SDS011;43337;52.070;4.508;2023-05-07T01:51:45;47.03;;;24.13;;
49029;SDS011;43337;52.070;4.508;2023-05-07T01:54:12;51.40;;;24.55;;
49029;SDS011;43337;52.070;4.508;2023-05-07T01:56:38;39.10;;;20.98;;
49029;SDS011;43337;52.070;4.508;2023-05-07T01:59:03;49.88;;;24.40;;
49029;SDS011;43337;52.070;4.508;2023-05-07T02:01:28;50.78;;;24.48;;
49029;SDS011;43337;52.070;4.508;2023-05-07T02:03:54;52.38;;;24.35;;
49029;SDS011;43337;52.070;4.508;2023-05-07T02:06:20;46.10;;;22.33;;
49029;SDS011;43337;52.070;4.508;2023-05-07T02:08:46;46.80;;;23.35;;
49029;SDS011;43337;52.070;4.508;2023-05-07T02:11:12;42.05;;;22.05;;
49029;SDS011;43337;52.070;4.508;2023-05-07T02:13:37;44.63;;;22.20;;
49029;SDS011;43337;52.070;4.508;2023-05-07T02:16:02;43.63;;;22.38;;
49029;SDS011;43337;52.070;4.508;2023-05-07T02:18:28;44.40;;;21.65;;
49029;SDS011;43337;52.070;4.508;2023-05-07T02:20:54;40.05;;;21.40;;
49029;SDS011;43337;52.070;4.508;2023-05-07T02:23:19;42.95;;;22.20;;
49029;SDS011;43337;52.070;4.508;2023-05-07T02:25:44;39.15;;;21.08;;
49029;SDS011;43337;52.070;4.508;2023-05-07T02:28:10;39.35;;;20.95;;
49029;SDS011;43337;52.070;4.508;2023-05-07T02:30:36;41.40;;;20.60;;
49029;SDS011;43337;52.070;4.508;2023-05-07T02:33:02;41.45;;;21.17;;
49029;SDS011;43337;52.070;4.508;2023-05-07T02:35:28;43.47;;;22.15;;
49029;SDS011;43337;52.070;4.508;2023-05-07T02:37:53;39.97;;;20.33;;
49029;SDS011;43337;52.070;4.508;2023-05-07T02:40:18;40.85;;;21.58;;
49029;SDS011;43337;52.070;4.508;2023-05-07T02:42:44;35.15;;;20.00;;
49029;SDS011;43337;52.070;4.508;2023-05-07T02:45:10;39.78;;;21.65;;
49029;SDS011;43337;52.070;4.508;2023-05-07T02:47:36;39.65;;;21.73;;
49029;SDS011;43337;52.070;4.508;2023-05-07T02:50:01;41.88;;;22.02;;
49029;SDS011;43337;52.070;4.508;2023-05-07T02:52:27;39.22;;;22.40;;
49029;SDS011;43337;52.070;4.508;2023-05-07T02:54:53;41.25;;;21.52;;
49029;SDS011;43337;52.070;4.508;2023-05-07T02:57:18;39.13;;;20.05;;
49029;SDS011;43337;52.070;4.508;2023-05-07T02:59:43;37.05;;;20.52;;
49029;SDS011;43337;52.070;4.508;2023-05-07T03:02:09;38.10;;;20.17;;
49029;SDS011;43337;52.070;4.508;2023-05-07T03:04:36;36.58;;;19.10;;
49029;SDS011;43337;52.070;4.508;2023-05-07T03:07:06;35.65;;;18.95;;
49029;SDS011;43337;52.070;4.508;2023-05-07T03:09:31;36.78;;;20.23;;
49029;SDS011;43337;52.070;4.508;2023-05-07T03:11:57;35.47;;;20.33;;
49029;SDS011;43337;52.070;4.508;2023-05-07T03:14:22;37.78;;;19.90;;
49029;SDS011;43337;52.070;4.508;2023-05-07T03:16:48;34.45;;;19.55;;
49029;SDS011;43337;52.070;4.508;2023-05-07T03:19:15;37.08;;;20.15;;
49029;SDS011;43337;52.070;4.508;2023-05-07T03:21:41;35.28;;;19.65;;
49029;SDS011;43337;52.070;4.508;2023-05-07T03:24:07;32.92;;;19.17;;
49029;SDS011;43337;52.070;4.508;2023-05-07T03:26:33;32.10;;;19.27;;
49029;SDS011;43337;52.070;4.508;2023-05-07T03:28:58;30.30;;;18.40;;
49029;SDS011;43337;52.070;4.508;2023-05-07T03:31:24;31.60;;;19.48;;
49029;SDS011;43337;52.070;4.508;2023-05-07T03:33:53;33.38;;;18.00;;
49029;SDS011;43337;52.070;4.508;2023-05-07T03:36:22;32.17;;;19.33;;
49029;SDS011;43337;52.070;4.508;2023-05-07T03:38:48;33.28;;;18.25;;
49029;SDS011;43337;52.070;4.508;2023-05-07T03:41:15;27.30;;;17.83;;
49029;SDS011;43337;52.070;4.508;2023-05-07T03:43:41;26.52;;;16.10;;
49029;SDS011;43337;52.070;4.508;2023-05-07T03:46:07;29.42;;;17.73;;
49029;SDS011;43337;52.070;4.508;2023-05-07T03:48:32;28.38;;;16.83;;
49029;SDS011;43337;52.070;4.508;2023-05-07T03:50:58;30.60;;;17.70;;
49029;SDS011;43337;52.070;4.508;2023-05-07T03:53:24;27.15;;;17.42;;
49029;SDS011;43337;52.070;4.508;2023-05-07T03:55:51;29.98;;;18.00;;
49029;SDS011;43337;52.070;4.508;2023-05-07T03:58:16;30.02;;;18.00;;
49029;SDS011;43337;52.070;4.508;2023-05-07T04:00:42;27.15;;;16.65;;
49029;SDS011;43337;52.070;4.508;2023-05-07T04:03:08;29.38;;;17.40;;
49029;SDS011;43337;52.070;4.508;2023-05-07T04:05:33;25.58;;;16.33;;
49029;SDS011;43337;52.070;4.508;2023-05-07T04:07:59;24.88;;;17.75;;
49029;SDS011;43337;52.070;4.508;2023-05-07T04:10:25;25.33;;;16.23;;
49029;SDS011;43337;52.070;4.508;2023-05-07T04:12:50;29.58;;;16.67;;
49029;SDS011;43337;52.070;4.508;2023-05-07T04:15:16;26.15;;;16.52;;
49029;SDS011;43337;52.070;4.508;2023-05-07T04:17:43;24.85;;;16.02;;
49029;SDS011;43337;52.070;4.508;2023-05-07T04:20:09;24.85;;;16.13;;
49029;SDS011;43337;52.070;4.508;2023-05-07T04:22:36;24.05;;;14.30;;
49029;SDS011;43337;52.070;4.508;2023-05-07T04:25:02;23.80;;;15.05;;
49029;SDS011;43337;52.070;4.508;2023-05-07T04:27:28;25.67;;;15.68;;
49029;SDS011;43337;52.070;4.508;2023-05-07T04:29:53;22.52;;;14.68;;
49029;SDS011;43337;52.070;4.508;2023-05-07T04:32:21;26.73;;;15.05;;
49029;SDS011;43337;52.070;4.508;2023-05-07T04:34:47;26.45;;;15.05;;
49029;SDS011;43337;52.070;4.508;2023-05-07T04:37:12;22.77;;;14.85;;
49029;SDS011;43337;52.070;4.508;2023-05-07T04:39:38;20.35;;;13.70;;
49029;SDS011;43337;52.070;4.508;2023-05-07T04:42:03;21.33;;;13.82;;
49029;SDS011;43337;52.070;4.508;2023-05-07T04:44:28;23.08;;;15.57;;
49029;SDS011;43337;52.070;4.508;2023-05-07T04:46:56;25.35;;;14.65;;
49029;SDS011;43337;52.070;4.508;2023-05-07T04:49:21;22.58;;;13.52;;
49029;SDS011;43337;52.070;4.508;2023-05-07T04:51:47;21.55;;;13.98;;
49029;SDS011;43337;52.070;4.508;2023-05-07T04:54:12;21.95;;;13.48;;
49029;SDS011;43337;52.070;4.508;2023-05-07T04:56:37;20.40;;;14.13;;
49029;SDS011;43337;52.070;4.508;2023-05-07T04:59:03;20.27;;;13.45;;
49029;SDS011;43337;52.070;4.508;2023-05-07T05:01:28;23.42;;;13.98;;
49029;SDS011;43337;52.070;4.508;2023-05-07T05:03:54;24.70;;;14.50;;
49029;SDS011;43337;52.070;4.508;2023-05-07T05:06:19;24.02;;;13.65;;
49029;SDS011;43337;52.070;4.508;2023-05-07T05:08:45;22.35;;;13.77;;
49029;SDS011;43337;52.070;4.508;2023-05-07T05:11:10;22.80;;;13.82;;
49029;SDS011;43337;52.070;4.508;2023-05-07T05:13:35;20.95;;;13.70;;
49029;SDS011;43337;52.070;4.508;2023-05-07T05:16:01;21.80;;;14.20;;
49029;SDS011;43337;52.070;4.508;2023-05-07T05:18:26;25.02;;;15.27;;
49029;SDS011;43337;52.070;4.508;2023-05-07T05:20:51;19.58;;;13.00;;
49029;SDS011;43337;52.070;4.508;2023-05-07T05:23:17;21.17;;;13.60;;
49029;SDS011;43337;52.070;4.508;2023-05-07T05:25:42;20.98;;;13.23;;
49029;SDS011;43337;52.070;4.508;2023-05-07T05:28:08;21.65;;;13.93;;
49029;SDS011;43337;52.070;4.508;2023-05-07T05:30:33;22.80;;;14.35;;
49029;SDS011;43337;52.070;4.508;2023-05-07T05:32:58;22.48;;;13.93;;
49029;SDS011;43337;52.070;4.508;2023-05-07T05:35:24;22.73;;;14.18;;
49029;SDS011;43337;52.070;4.508;2023-05-07T05:37:50;22.55;;;14.35;;
49029;SDS011;43337;52.070;4.508;2023-05-07T05:40:16;20.58;;;13.70;;
49029;SDS011;43337;52.070;4.508;2023-05-07T05:42:41;20.33;;;13.30;;
49029;SDS011;43337;52.070;4.508;2023-05-07T05:45:07;20.95;;;14.20;;
49029;SDS011;43337;52.070;4.508;2023-05-07T05:47:33;19.77;;;13.18;;
49029;SDS011;43337;52.070;4.508;2023-05-07T05:49:58;21.00;;;14.00;;
49029;SDS011;43337;52.070;4.508;2023-05-07T05:52:23;20.77;;;13.85;;
49029;SDS011;43337;52.070;4.508;2023-05-07T05:54:49;24.23;;;14.38;;
49029;SDS011;43337;52.070;4.508;2023-05-07T05:57:15;23.48;;;15.30;;
49029;SDS011;43337;52.070;4.508;2023-05-07T05:59:40;21.98;;;13.30;;
49029;SDS011;43337;52.070;4.508;2023-05-07T06:02:06;20.23;;;14.35;;
49029;SDS011;43337;52.070;4.508;2023-05-07T06:04:32;24.35;;;14.50;;
49029;SDS011;43337;52.070;4.508;2023-05-07T06:06:57;20.88;;;14.57;;
49029;SDS011;43337;52.070;4.508;2023-05-07T06:09:23;21.60;;;15.18;;
49029;SDS011;43337;52.070;4.508;2023-05-07T06:11:48;25.05;;;15.25;;
49029;SDS011;43337;52.070;4.508;2023-05-07T06:14:13;22.42;;;15.27;;
49029;SDS011;43337;52.070;4.508;2023-05-07T06:16:39;24.15;;;15.13;;
49029;SDS011;43337;52.070;4.508;2023-05-07T06:19:04;25.85;;;15.77;;
49029;SDS011;43337;52.070;4.508;2023-05-07T06:21:30;22.65;;;15.75;;
49029;SDS011;43337;52.070;4.508;2023-05-07T06:23:55;26.70;;;15.90;;
49029;SDS011;43337;52.070;4.508;2023-05-07T06:26:21;28.20;;;17.05;;
49029;SDS011;43337;52.070;4.508;2023-05-07T06:28:46;27.75;;;17.00;;
49029;SDS011;43337;52.070;4.508;2023-05-07T06:31:13;29.63;;;16.75;;
49029;SDS011;43337;52.070;4.508;2023-05-07T06:33:44;24.55;;;15.60;;
49029;SDS011;43337;52.070;4.508;2023-05-07T06:36:10;26.25;;;16.45;;
49029;SDS011;43337;52.070;4.508;2023-05-07T06:38:35;26.65;;;17.25;;
49029;SDS011;43337;52.070;4.508;2023-05-07T06:41:01;26.90;;;16.92;;
49029;SDS011;43337;52.070;4.508;2023-05-07T06:43:26;26.85;;;16.65;;
49029;SDS011;43337;52.070;4.508;2023-05-07T06:45:51;22.65;;;16.05;;
49029;SDS011;43337;52.070;4.508;2023-05-07T06:48:17;25.02;;;16.52;;
49029;SDS011;43337;52.070;4.508;2023-05-07T06:50:42;26.60;;;15.95;;
49029;SDS011;43337;52.070;4.508;2023-05-07T06:53:07;27.15;;;16.67;;
49029;SDS011;43337;52.070;4.508;2023-05-07T06:55:33;24.73;;;16.58;;
49029;SDS011;43337;52.070;4.508;2023-05-07T06:57:59;25.92;;;17.05;;
49029;SDS011;43337;52.070;4.508;2023-05-07T07:00:26;28.27;;;16.75;;
49029;SDS011;43337;52.070;4.508;2023-05-07T07:02:52;25.55;;;16.95;;
49029;SDS011;43337;52.070;4.508;2023-05-07T07:05:19;23.90;;;16.15;;
49029;SDS011;43337;52.070;4.508;2023-05-07T07:07:44;29.63;;;16.40;;
49029;SDS011;43337;52.070;4.508;2023-05-07T07:10:17;22.00;;;15.85;;
49029;SDS011;43337;52.070;4.508;2023-05-07T07:12:43;22.70;;;14.48;;
49029;SDS011;43337;52.070;4.508;2023-05-07T07:15:08;21.85;;;15.52;;
49029;SDS011;43337;52.070;4.508;2023-05-07T07:17:34;24.05;;;15.25;;
49029;SDS011;43337;52.070;4.508;2023-05-07T07:20:00;24.92;;;15.35;;
49029;SDS011;43337;52.070;4.508;2023-05-07T07:22:25;20.30;;;14.38;;
49029;SDS011;43337;52.070;4.508;2023-05-07T07:24:50;21.65;;;14.07;;
49029;SDS011;43337;52.070;4.508;2023-05-07T07:27:16;22.08;;;13.95;;
49029;SDS011;43337;52.070;4.508;2023-05-07T07:29:41;27.23;;;16.25;;
49029;SDS011;43337;52.070;4.508;2023-05-07T07:32:07;23.17;;;15.50;;
49029;SDS011;43337;52.070;4.508;2023-05-07T07:34:32;19.88;;;13.30;;
49029;SDS011;43337;52.070;4.508;2023-05-07T07:36:57;21.50;;;13.48;;
49029;SDS011;43337;52.070;4.508;2023-05-07T07:39:23;22.45;;;13.65;;
49029;SDS011;43337;52.070;4.508;2023-05-07T07:41:48;19.02;;;13.23;;
49029;SDS011;43337;52.070;4.508;2023-05-07T07:44:14;21.23;;;12.77;;
49029;SDS011;43337;52.070;4.508;2023-05-07T07:46:39;21.30;;;12.68;;
49029;SDS011;43337;52.070;4.508;2023-05-07T07:49:04;20.58;;;12.60;;
49029;SDS011;43337;52.070;4.508;2023-05-07T07:51:30;25.38;;;14.80;;
49029;SDS011;43337;52.070;4.508;2023-05-07T07:53:55;18.23;;;12.40;;
49029;SDS011;43337;52.070;4.508;2023-05-07T07:56:22;19.80;;;11.65;;
49029;SDS011;43337;52.070;4.508;2023-05-07T07:58:48;17.05;;;11.43;;
49029;SDS011;43337;52.070;4.508;2023-05-07T08:01:13;16.52;;;11.10;;
49029;SDS011;43337;52.070;4.508;2023-05-07T08:03:39;18.08;;;10.70;;
49029;SDS011;43337;52.070;4.508;2023-05-07T08:06:05;19.05;;;11.93;;
49029;SDS011;43337;52.070;4.508;2023-05-07T08:08:31;15.02;;;10.02;;
49029;SDS011;43337;52.070;4.508;2023-05-07T08:10:56;15.65;;;9.82;;
49029;SDS011;43337;52.070;4.508;2023-05-07T08:13:21;17.17;;;10.57;;
49029;SDS011;43337;52.070;4.508;2023-05-07T08:15:47;16.00;;;9.40;;
49029;SDS011;43337;52.070;4.508;2023-05-07T08:18:12;16.08;;;8.93;;
49029;SDS011;43337;52.070;4.508;2023-05-07T08:20:37;14.55;;;9.13;;
49029;SDS011;43337;52.070;4.508;2023-05-07T08:23:04;15.45;;;9.15;;
49029;SDS011;43337;52.070;4.508;2023-05-07T08:25:32;13.88;;;8.27;;
49029;SDS011;43337;52.070;4.508;2023-05-07T08:27:58;13.50;;;7.18;;
49029;SDS011;43337;52.070;4.508;2023-05-07T08:30:23;14.82;;;8.95;;
49029;SDS011;43337;52.070;4.508;2023-05-07T08:32:49;14.52;;;7.07;;
49029;SDS011;43337;52.070;4.508;2023-05-07T08:35:14;13.88;;;7.75;;
49029;SDS011;43337;52.070;4.508;2023-05-07T08:37:39;14.07;;;8.27;;
49029;SDS011;43337;52.070;4.508;2023-05-07T08:40:05;13.35;;;8.18;;
49029;SDS011;43337;52.070;4.508;2023-05-07T08:42:31;13.38;;;7.70;;
49029;SDS011;43337;52.070;4.508;2023-05-07T08:44:57;14.80;;;8.85;;
49029;SDS011;43337;52.070;4.508;2023-05-07T08:47:25;14.90;;;8.27;;
49029;SDS011;43337;52.070;4.508;2023-05-07T08:49:54;12.93;;;7.47;;
49029;SDS011;43337;52.070;4.508;2023-05-07T08:52:20;11.82;;;7.00;;
49029;SDS011;43337;52.070;4.508;2023-05-07T08:54:46;10.88;;;6.00;;
49029;SDS011;43337;52.070;4.508;2023-05-07T08:57:12;10.02;;;5.03;;
49029;SDS011;43337;52.070;4.508;2023-05-07T08:59:38;12.18;;;6.60;;
49029;SDS011;43337;52.070;4.508;2023-05-07T09:02:04;11.20;;;7.28;;
49029;SDS011;43337;52.070;4.508;2023-05-07T09:04:33;12.20;;;7.07;;
49029;SDS011;43337;52.070;4.508;2023-05-07T09:06:58;10.77;;;6.70;;
49029;SDS011;43337;52.070;4.508;2023-05-07T09:09:30;12.18;;;6.55;;
49029;SDS011;43337;52.070;4.508;2023-05-07T09:11:58;13.40;;;8.00;;
49029;SDS011;43337;52.070;4.508;2023-05-07T09:14:27;10.77;;;6.95;;
49029;SDS011;43337;52.070;4.508;2023-05-07T09:16:52;14.32;;;8.55;;
49029;SDS011;43337;52.070;4.508;2023-05-07T09:19:22;15.02;;;8.80;;
49029;SDS011;43337;52.070;4.508;2023-05-07T09:21:57;13.25;;;8.18;;
49029;SDS011;43337;52.070;4.508;2023-05-07T09:24:24;13.82;;;7.65;;
49029;SDS011;43337;52.070;4.508;2023-05-07T09:26:49;13.63;;;8.93;;
49029;SDS011;43337;52.070;4.508;2023-05-07T09:29:15;14.50;;;9.00;;
49029;SDS011;43337;52.070;4.508;2023-05-07T09:31:40;16.42;;;9.48;;
49029;SDS011;43337;52.070;4.508;2023-05-07T09:34:06;14.52;;;9.23;;
49029;SDS011;43337;52.070;4.508;2023-05-07T09:36:31;12.88;;;7.57;;
49029;SDS011;43337;52.070;4.508;2023-05-07T09:38:59;10.95;;;6.57;;
49029;SDS011;43337;52.070;4.508;2023-05-07T09:41:25;10.25;;;5.40;;
49029;SDS011;43337;52.070;4.508;2023-05-07T09:43:57;12.73;;;6.60;;
49029;SDS011;43337;52.070;4.508;2023-05-07T09:46:29;10.73;;;5.97;;
49029;SDS011;43337;52.070;4.508;2023-05-07T09:48:59;10.27;;;6.78;;
49029;SDS011;43337;52.070;4.508;2023-05-07T09:51:31;10.95;;;6.47;;
49029;SDS011;43337;52.070;4.508;2023-05-07T09:54:01;12.25;;;7.53;;
49029;SDS011;43337;52.070;4.508;2023-05-07T09:56:29;12.90;;;7.88;;
49029;SDS011;43337;52.070;4.508;2023-05-07T09:58:56;11.68;;;7.53;;
49029;SDS011;43337;52.070;4.508;2023-05-07T10:01:25;13.18;;;7.63;;
49029;SDS011;43337;52.070;4.508;2023-05-07T10:03:52;15.15;;;8.50;;
49029;SDS011;43337;52.070;4.508;2023-05-07T10:06:18;12.00;;;7.65;;
49029;SDS011;43337;52.070;4.508;2023-05-07T10:08:44;13.07;;;8.15;;
49029;SDS011;43337;52.070;4.508;2023-05-07T10:11:10;12.65;;;8.15;;
49029;SDS011;43337;52.070;4.508;2023-05-07T10:13:36;13.43;;;8.38;;
49029;SDS011;43337;52.070;4.508;2023-05-07T10:16:04;14.70;;;8.32;;
49029;SDS011;43337;52.070;4.508;2023-05-07T10:18:30;11.90;;;7.53;;
49029;SDS011;43337;52.070;4.508;2023-05-07T10:23:33;11.82;;;6.97;;
49029;SDS011;43337;52.070;4.508;2023-05-07T10:25:59;11.05;;;6.60;;
49029;SDS011;43337;52.070;4.508;2023-05-07T10:28:30;12.95;;;6.53;;
49029;SDS011;43337;52.070;4.508;2023-05-07T10:31:15;13.90;;;7.47;;
49029;SDS011;43337;52.070;4.508;2023-05-07T10:33:57;13.02;;;7.05;;
49029;SDS011;43337;52.070;4.508;2023-05-07T10:36:24;11.60;;;6.30;;
49029;SDS011;43337;52.070;4.508;2023-05-07T10:38:50;13.20;;;7.43;;
49029;SDS011;43337;52.070;4.508;2023-05-07T10:41:15;11.30;;;6.00;;
49029;SDS011;43337;52.070;4.508;2023-05-07T10:43:45;11.25;;;6.55;;
49029;SDS011;43337;52.070;4.508;2023-05-07T10:46:14;11.88;;;6.97;;
49029;SDS011;43337;52.070;4.508;2023-05-07T10:49:17;11.40;;;5.90;;
49029;SDS011;43337;52.070;4.508;2023-05-07T10:51:41;12.68;;;6.60;;
49029;SDS011;43337;52.070;4.508;2023-05-07T10:56:41;12.73;;;6.65;;
49029;SDS011;43337;52.070;4.508;2023-05-07T11:01:56;10.70;;;6.40;;
49029;SDS011;43337;52.070;4.508;2023-05-07T11:04:23;10.68;;;5.95;;
49029;SDS011;43337;52.070;4.508;2023-05-07T11:09:55;11.15;;;6.38;;
49029;SDS011;43337;52.070;4.508;2023-05-07T11:15:03;15.73;;;6.60;;
49029;SDS011;43337;52.070;4.508;2023-05-07T11:17:29;9.43;;;5.25;;
49029;SDS011;43337;52.070;4.508;2023-05-07T11:20:01;12.23;;;6.68;;
49029;SDS011;43337;52.070;4.508;2023-05-07T11:24:55;10.15;;;5.45;;
49029;SDS011;43337;52.070;4.508;2023-05-07T11:27:24;10.00;;;5.18;;
49029;SDS011;43337;52.070;4.508;2023-05-07T11:29:50;10.98;;;4.57;;
49029;SDS011;43337;52.070;4.508;2023-05-07T11:32:38;12.18;;;5.13;;
49029;SDS011;43337;52.070;4.508;2023-05-07T11:35:04;9.95;;;4.25;;
49029;SDS011;43337;52.070;4.508;2023-05-07T11:37:30;10.75;;;4.68;;
49029;SDS011;43337;52.070;4.508;2023-05-07T11:40:08;10.35;;;4.22;;
49029;SDS011;43337;52.070;4.508;2023-05-07T11:42:39;10.50;;;4.20;;
49029;SDS011;43337;52.070;4.508;2023-05-07T11:45:06;9.63;;;4.75;;
49029;SDS011;43337;52.070;4.508;2023-05-07T11:47:32;10.88;;;6.22;;
49029;SDS011;43337;52.070;4.508;2023-05-07T11:50:02;14.68;;;7.93;;
49029;SDS011;43337;52.070;4.508;2023-05-07T11:52:29;8.98;;;5.07;;
49029;SDS011;43337;52.070;4.508;2023-05-07T11:54:56;8.52;;;5.10;;
49029;SDS011;43337;52.070;4.508;2023-05-07T11:57:23;9.85;;;5.22;;
49029;SDS011;43337;52.070;4.508;2023-05-07T11:59:55;8.88;;;5.10;;
49029;SDS011;43337;52.070;4.508;2023-05-07T12:02:25;10.02;;;5.15;;
49029;SDS011;43337;52.070;4.508;2023-05-07T12:04:54;10.00;;;6.75;;
49029;SDS011;43337;52.070;4.508;2023-05-07T12:07:20;8.18;;;5.53;;
49029;SDS011;43337;52.070;4.508;2023-05-07T12:09:46;11.23;;;6.38;;
49029;SDS011;43337;52.070;4.508;2023-05-07T12:12:13;10.63;;;6.35;;
49029;SDS011;43337;52.070;4.508;2023-05-07T12:14:42;11.02;;;6.18;;
49029;SDS011;43337;52.070;4.508;2023-05-07T12:17:09;9.43;;;6.50;;
49029;SDS011;43337;52.070;4.508;2023-05-07T12:19:36;12.57;;;6.70;;
49029;SDS011;43337;52.070;4.508;2023-05-07T12:22:04;12.80;;;6.40;;
49029;SDS011;43337;52.070;4.508;2023-05-07T12:24:44;13.15;;;6.82;;
49029;SDS011;43337;52.070;4.508;2023-05-07T12:27:15;15.52;;;8.00;;
49029;SDS011;43337;52.070;4.508;2023-05-07T12:29:47;15.98;;;8.77;;
49029;SDS011;43337;52.070;4.508;2023-05-07T12:32:17;17.63;;;8.60;;
49029;SDS011;43337;52.070;4.508;2023-05-07T12:34:44;18.23;;;8.63;;
49029;SDS011;43337;52.070;4.508;2023-05-07T12:37:10;18.55;;;9.80;;
49029;SDS011;43337;52.070;4.508;2023-05-07T12:39:37;16.98;;;10.10;;
49029;SDS011;43337;52.070;4.508;2023-05-07T12:42:03;17.77;;;9.48;;
49029;SDS011;43337;52.070;4.508;2023-05-07T12:44:29;19.90;;;9.77;;
49029;SDS011;43337;52.070;4.508;2023-05-07T12:46:58;19.00;;;10.35;;
49029;SDS011;43337;52.070;4.508;2023-05-07T12:49:26;23.08;;;12.25;;
49029;SDS011;43337;52.070;4.508;2023-05-07T12:51:53;30.55;;;14.20;;
49029;SDS011;43337;52.070;4.508;2023-05-07T12:54:37;31.35;;;13.63;;
49029;SDS011;43337;52.070;4.508;2023-05-07T12:57:07;28.85;;;15.20;;
49029;SDS011;43337;52.070;4.508;2023-05-07T12:59:38;29.90;;;15.27;;
49029;SDS011;43337;52.070;4.508;2023-05-07T13:02:05;30.67;;;15.75;;
49029;SDS011;43337;52.070;4.508;2023-05-07T13:04:32;30.95;;;16.27;;
49029;SDS011;43337;52.070;4.508;2023-05-07T13:06:58;33.75;;;16.67;;
49029;SDS011;43337;52.070;4.508;2023-05-07T13:09:24;40.13;;;18.98;;
49029;SDS011;43337;52.070;4.508;2023-05-07T13:11:49;36.05;;;18.05;;
49029;SDS011;43337;52.070;4.508;2023-05-07T13:14:16;34.30;;;18.70;;
49029;SDS011;43337;52.070;4.508;2023-05-07T13:16:42;39.65;;;20.17;;
49029;SDS011;43337;52.070;4.508;2023-05-07T13:19:09;37.78;;;19.17;;
49029;SDS011;43337;52.070;4.508;2023-05-07T13:21:35;36.35;;;18.38;;
49029;SDS011;43337;52.070;4.508;2023-05-07T13:24:01;29.48;;;18.10;;
49029;SDS011;43337;52.070;4.508;2023-05-07T13:26:27;34.03;;;20.02;;
49029;SDS011;43337;52.070;4.508;2023-05-07T13:28:56;35.75;;;19.63;;
49029;SDS011;43337;52.070;4.508;2023-05-07T13:31:24;33.72;;;18.38;;
49029;SDS011;43337;52.070;4.508;2023-05-07T13:33:49;35.42;;;18.90;;
49029;SDS011;43337;52.070;4.508;2023-05-07T13:36:17;36.33;;;19.35;;
49029;SDS011;43337;52.070;4.508;2023-05-07T13:38:44;31.75;;;18.95;;
49029;SDS011;43337;52.070;4.508;2023-05-07T13:41:11;36.80;;;20.23;;
49029;SDS011;43337;52.070;4.508;2023-05-07T13:43:41;37.45;;;21.35;;
49029;SDS011;43337;52.070;4.508;2023-05-07T13:46:08;35.15;;;20.85;;
49029;SDS011;43337;52.070;4.508;2023-05-07T13:48:34;31.52;;;19.73;;
49029;SDS011;43337;52.070;4.508;2023-05-07T13:51:00;31.08;;;19.45;;
49029;SDS011;43337;52.070;4.508;2023-05-07T13:53:26;34.55;;;18.73;;
49029;SDS011;43337;52.070;4.508;2023-05-07T13:55:51;30.77;;;19.08;;
49029;SDS011;43337;52.070;4.508;2023-05-07T13:58:18;30.00;;;18.73;;
49029;SDS011;43337;52.070;4.508;2023-05-07T14:00:44;32.75;;;19.45;;
49029;SDS011;43337;52.070;4.508;2023-05-07T14:03:12;30.02;;;18.17;;
49029;SDS011;43337;52.070;4.508;2023-05-07T14:05:37;30.50;;;18.08;;
49029;SDS011;43337;52.070;4.508;2023-05-07T14:08:03;37.70;;;18.42;;
49029;SDS011;43337;52.070;4.508;2023-05-07T14:10:30;28.70;;;18.02;;
49029;SDS011;43337;52.070;4.508;2023-05-07T14:12:56;29.95;;;17.20;;
49029;SDS011;43337;52.070;4.508;2023-05-07T14:15:27;32.00;;;19.48;;
49029;SDS011;43337;52.070;4.508;2023-05-07T14:17:53;29.05;;;19.15;;
49029;SDS011;43337;52.070;4.508;2023-05-07T14:20:20;35.35;;;19.42;;
49029;SDS011;43337;52.070;4.508;2023-05-07T14:22:45;34.42;;;19.52;;
49029;SDS011;43337;52.070;4.508;2023-05-07T14:25:11;38.97;;;20.02;;
49029;SDS011;43337;52.070;4.508;2023-05-07T14:27:38;34.83;;;19.88;;
49029;SDS011;43337;52.070;4.508;2023-05-07T14:30:07;34.08;;;18.80;;
49029;SDS011;43337;52.070;4.508;2023-05-07T14:32:33;32.92;;;20.95;;
49029;SDS011;43337;52.070;4.508;2023-05-07T14:34:59;32.50;;;19.38;;
49029;SDS011;43337;52.070;4.508;2023-05-07T14:37:25;38.63;;;19.08;;
49029;SDS011;43337;52.070;4.508;2023-05-07T14:39:52;33.80;;;19.38;;